ENZV/SVG METAR and TAF weather

Enter ICAO airport designator
Station Type Date Time Source
ENZV METAR 2018/12/12 16:20 UTC NOAA

ENZV 121620Z 11005KT CAVOK 00/M04 Q1030 NOSIG


Station Type Date Time Source
ENZV Decoded METAR 2018/12/12 16:20 UTC NOAA

Stavanger / Sola, Norway (ENZV) 58-53N 005-38E 9M
Dec 12, 2018 - 11:20 AM EST / 2018.12.12 1620 UTC
Wind: from the ESE (110 degrees) at 6 MPH (5 KT):0
Visibility: greater than 7 mile(s):0
Temperature: 32 F (0 C)
Windchill: 26 F (-3 C):1
Dew Point: 24 F (-4 C)
Relative Humidity: 74%
Pressure (altimeter): 30.42 in. Hg (1030 hPa)
ob: ENZV 121620Z 11005KT CAVOK 00/M04 Q1030 NOSIG
cycle: 16

Station Type Date Time Source
ENZV TAF 2018/12/12 12:57 UTC NOAA

TAF ENZV 121100Z 1212/1312 12008KT CAVOK


Example: see airport list